sensor_id;sensor_type;location;lat;lon;timestamp;pressure;altitude;pressure_sealevel;temperature;humidity
70684;BME280;58263;48.146;11.440;2023-08-17T00:01:00;95767.88;;;21.01;71.17
70684;BME280;58263;48.146;11.440;2023-08-17T00:03:26;95770.03;;;21.04;70.87
70684;BME280;58263;48.146;11.440;2023-08-17T00:05:51;95771.72;;;21.00;71.20
70684;BME280;58263;48.146;11.440;2023-08-17T00:08:16;95776.94;;;20.96;71.19
70684;BME280;58263;48.146;11.440;2023-08-17T00:10:42;95774.53;;;20.94;71.30
70684;BME280;58263;48.146;11.440;2023-08-17T00:13:07;95773.19;;;20.92;71.68
70684;BME280;58263;48.146;11.440;2023-08-17T00:15:33;95775.69;;;20.88;71.89
70684;BME280;58263;48.146;11.440;2023-08-17T00:17:58;95775.88;;;20.78;72.72
70684;BME280;58263;48.146;11.440;2023-08-17T00:20:23;95783.22;;;20.77;72.57
70684;BME280;58263;48.146;11.440;2023-08-17T00:22:48;95784.59;;;20.75;72.64
70684;BME280;58263;48.146;11.440;2023-08-17T00:25:14;95781.41;;;20.68;72.93
70684;BME280;58263;48.146;11.440;2023-08-17T00:27:39;95783.88;;;20.69;72.73
70684;BME280;58263;48.146;11.440;2023-08-17T00:30:05;95780.63;;;20.67;72.04
70684;BME280;58263;48.146;11.440;2023-08-17T00:32:30;95778.25;;;20.60;72.18
70684;BME280;58263;48.146;11.440;2023-08-17T00:34:56;95777.28;;;20.51;73.16
70684;BME280;58263;48.146;11.440;2023-08-17T00:37:21;95771.84;;;20.51;73.01
70684;BME280;58263;48.146;11.440;2023-08-17T00:39:46;95772.38;;;20.53;72.91
70684;BME280;58263;48.146;11.440;2023-08-17T00:42:11;95774.56;;;20.51;73.13
70684;BME280;58263;48.146;11.440;2023-08-17T00:44:37;95772.38;;;20.53;72.75
70684;BME280;58263;48.146;11.440;2023-08-17T00:47:02;95771.47;;;20.58;72.54
70684;BME280;58263;48.146;11.440;2023-08-17T00:49:27;95780.38;;;20.44;73.16
70684;BME280;58263;48.146;11.440;2023-08-17T00:51:53;95781.41;;;20.49;72.21
70684;BME280;58263;48.146;11.440;2023-08-17T00:54:24;95776.91;;;20.39;73.95
70684;BME280;58263;48.146;11.440;2023-08-17T00:56:50;95782.06;;;20.40;73.47
70684;BME280;58263;48.146;11.440;2023-08-17T00:59:16;95770.91;;;20.37;73.23
70684;BME280;58263;48.146;11.440;2023-08-17T01:01:42;95779.97;;;20.32;73.89
70684;BME280;58263;48.146;11.440;2023-08-17T01:04:07;95776.53;;;20.26;74.12
70684;BME280;58263;48.146;11.440;2023-08-17T01:06:33;95761.81;;;20.27;73.85
70684;BME280;58263;48.146;11.440;2023-08-17T01:08:58;95766.72;;;20.25;73.64
70684;BME280;58263;48.146;11.440;2023-08-17T01:11:48;95776.28;;;20.23;74.31
70684;BME280;58263;48.146;11.440;2023-08-17T01:14:51;95772.00;;;20.17;74.81
70684;BME280;58263;48.146;11.440;2023-08-17T01:17:28;95771.47;;;20.15;74.79
70684;BME280;58263;48.146;11.440;2023-08-17T01:19:55;95770.97;;;20.13;74.45
70684;BME280;58263;48.146;11.440;2023-08-17T01:22:21;95768.94;;;20.23;74.21
70684;BME280;58263;48.146;11.440;2023-08-17T01:24:47;95770.63;;;20.19;74.11
70684;BME280;58263;48.146;11.440;2023-08-17T01:27:13;95769.09;;;20.08;74.69
70684;BME280;58263;48.146;11.440;2023-08-17T01:29:38;95765.88;;;20.06;74.55
70684;BME280;58263;48.146;11.440;2023-08-17T01:32:07;95779.44;;;20.11;74.22
70684;BME280;58263;48.146;11.440;2023-08-17T01:34:40;95774.78;;;20.12;74.14
70684;BME280;58263;48.146;11.440;2023-08-17T01:37:10;95775.59;;;20.12;74.18
70684;BME280;58263;48.146;11.440;2023-08-17T01:39:42;95771.31;;;20.06;74.51
70684;BME280;58263;48.146;11.440;2023-08-17T01:42:10;95763.22;;;20.01;74.88
70684;BME280;58263;48.146;11.440;2023-08-17T01:44:36;95759.38;;;20.02;74.37
70684;BME280;58263;48.146;11.440;2023-08-17T01:47:01;95761.59;;;20.00;74.56
70684;BME280;58263;48.146;11.440;2023-08-17T01:49:27;95762.16;;;19.97;74.89
70684;BME280;58263;48.146;11.440;2023-08-17T01:51:52;95758.22;;;20.08;74.15
70684;BME280;58263;48.146;11.440;2023-08-17T01:54:18;95765.41;;;19.99;74.75
70684;BME280;58263;48.146;11.440;2023-08-17T01:56:43;95765.53;;;19.88;74.90
70684;BME280;58263;48.146;11.440;2023-08-17T01:59:08;95765.53;;;19.88;74.83
70684;BME280;58263;48.146;11.440;2023-08-17T02:01:34;95766.41;;;19.84;75.12
70684;BME280;58263;48.146;11.440;2023-08-17T02:03:59;95759.03;;;19.84;75.28
70684;BME280;58263;48.146;11.440;2023-08-17T02:06:27;95756.34;;;19.79;75.73
70684;BME280;58263;48.146;11.440;2023-08-17T02:08:52;95759.56;;;19.86;75.05
70684;BME280;58263;48.146;11.440;2023-08-17T02:11:17;95754.69;;;19.83;75.05
70684;BME280;58263;48.146;11.440;2023-08-17T02:13:43;95749.53;;;19.82;75.31
70684;BME280;58263;48.146;11.440;2023-08-17T02:16:08;95746.03;;;19.81;74.91
70684;BME280;58263;48.146;11.440;2023-08-17T02:18:33;95737.91;;;19.71;75.64
70684;BME280;58263;48.146;11.440;2023-08-17T02:21:00;95741.94;;;19.79;75.06
70684;BME280;58263;48.146;11.440;2023-08-17T02:23:25;95737.59;;;19.77;74.99
70684;BME280;58263;48.146;11.440;2023-08-17T02:25:51;95741.97;;;19.73;75.28
70684;BME280;58263;48.146;11.440;2023-08-17T02:28:16;95746.66;;;19.68;75.64
70684;BME280;58263;48.146;11.440;2023-08-17T02:30:41;95751.38;;;19.62;75.73
70684;BME280;58263;48.146;11.440;2023-08-17T02:33:07;95749.44;;;19.63;75.86
70684;BME280;58263;48.146;11.440;2023-08-17T02:35:32;95744.00;;;19.63;76.01
70684;BME280;58263;48.146;11.440;2023-08-17T02:37:58;95743.19;;;19.62;76.15
70684;BME280;58263;48.146;11.440;2023-08-17T02:40:23;95747.31;;;19.59;76.28
70684;BME280;58263;48.146;11.440;2023-08-17T02:42:48;95744.63;;;19.54;76.27
70684;BME280;58263;48.146;11.440;2023-08-17T02:45:14;95746.25;;;19.55;76.17
70684;BME280;58263;48.146;11.440;2023-08-17T02:47:39;95736.50;;;19.49;76.45
70684;BME280;58263;48.146;11.440;2023-08-17T02:50:05;95731.03;;;19.54;76.33
70684;BME280;58263;48.146;11.440;2023-08-17T02:52:30;95740.28;;;19.53;76.38
70684;BME280;58263;48.146;11.440;2023-08-17T02:54:55;95739.28;;;19.44;76.40
70684;BME280;58263;48.146;11.440;2023-08-17T02:57:21;95743.13;;;19.43;76.34
70684;BME280;58263;48.146;11.440;2023-08-17T02:59:46;95749.28;;;19.54;75.69
70684;BME280;58263;48.146;11.440;2023-08-17T03:02:11;95757.28;;;19.40;76.54
70684;BME280;58263;48.146;11.440;2023-08-17T03:04:36;95750.84;;;19.31;77.06
70684;BME280;58263;48.146;11.440;2023-08-17T03:07:02;95743.44;;;19.36;76.14
70684;BME280;58263;48.146;11.440;2023-08-17T03:09:27;95749.94;;;19.40;76.73
70684;BME280;58263;48.146;11.440;2023-08-17T03:11:53;95745.91;;;19.33;76.63
70684;BME280;58263;48.146;11.440;2023-08-17T03:14:18;95747.31;;;19.30;76.78
70684;BME280;58263;48.146;11.440;2023-08-17T03:16:43;95754.19;;;19.22;77.19
70684;BME280;58263;48.146;11.440;2023-08-17T03:19:08;95762.28;;;19.28;76.94
70684;BME280;58263;48.146;11.440;2023-08-17T03:21:36;95763.63;;;19.30;76.78
70684;BME280;58263;48.146;11.440;2023-08-17T03:24:01;95761.19;;;19.29;76.96
70684;BME280;58263;48.146;11.440;2023-08-17T03:26:27;95763.03;;;19.33;76.41
70684;BME280;58263;48.146;11.440;2023-08-17T03:28:52;95754.41;;;19.26;77.07
70684;BME280;58263;48.146;11.440;2023-08-17T03:31:20;95747.56;;;19.34;75.87
70684;BME280;58263;48.146;11.440;2023-08-17T03:33:45;95742.69;;;19.31;76.14
70684;BME280;58263;48.146;11.440;2023-08-17T03:36:10;95740.06;;;19.20;77.62
70684;BME280;58263;48.146;11.440;2023-08-17T03:38:36;95736.00;;;19.18;77.39
70684;BME280;58263;48.146;11.440;2023-08-17T03:41:02;95741.44;;;19.18;77.75
70684;BME280;58263;48.146;11.440;2023-08-17T03:43:29;95753.94;;;19.19;77.03
70684;BME280;58263;48.146;11.440;2023-08-17T03:45:54;95755.31;;;19.16;77.55
70684;BME280;58263;48.146;11.440;2023-08-17T03:48:19;95743.88;;;19.19;77.15
70684;BME280;58263;48.146;11.440;2023-08-17T03:50:46;95753.13;;;19.18;77.02
70684;BME280;58263;48.146;11.440;2023-08-17T03:53:11;95756.94;;;19.17;77.06
70684;BME280;58263;48.146;11.440;2023-08-17T03:55:37;95756.22;;;19.06;77.64
70684;BME280;58263;48.146;11.440;2023-08-17T03:58:02;95759.22;;;19.05;77.99
70684;BME280;58263;48.146;11.440;2023-08-17T04:00:27;95749.44;;;19.04;77.67
70684;BME280;58263;48.146;11.440;2023-08-17T04:02:52;95759.78;;;19.02;77.60
70684;BME280;58263;48.146;11.440;2023-08-17T04:05:18;95767.38;;;19.05;78.12
70684;BME280;58263;48.146;11.440;2023-08-17T04:07:43;95758.97;;;19.01;77.97
70684;BME280;58263;48.146;11.440;2023-08-17T04:10:08;95765.28;;;18.97;78.06
70684;BME280;58263;48.146;11.440;2023-08-17T04:12:34;95770.75;;;18.91;78.46
70684;BME280;58263;48.146;11.440;2023-08-17T04:14:59;95771.81;;;18.90;78.53
70684;BME280;58263;48.146;11.440;2023-08-17T04:17:25;95780.47;;;18.98;77.42
70684;BME280;58263;48.146;11.440;2023-08-17T04:19:50;95786.72;;;18.98;77.77
70684;BME280;58263;48.146;11.440;2023-08-17T04:22:16;95786.25;;;18.91;77.86
70684;BME280;58263;48.146;11.440;2023-08-17T04:24:41;95779.97;;;18.85;78.45
70684;BME280;58263;48.146;11.440;2023-08-17T04:27:06;95781.09;;;18.84;78.77
70684;BME280;58263;48.146;11.440;2023-08-17T04:29:32;95783.84;;;18.79;79.00
70684;BME280;58263;48.146;11.440;2023-08-17T04:31:58;95785.97;;;18.87;78.89
70684;BME280;58263;48.146;11.440;2023-08-17T04:34:24;95787.63;;;18.88;78.81
70684;BME280;58263;48.146;11.440;2023-08-17T04:36:49;95776.97;;;18.92;78.43
70684;BME280;58263;48.146;11.440;2023-08-17T04:39:14;95790.28;;;18.94;78.38
70684;BME280;58263;48.146;11.440;2023-08-17T04:41:40;95780.25;;;18.94;78.55
70684;BME280;58263;48.146;11.440;2023-08-17T04:44:05;95793.06;;;18.88;78.93
70684;BME280;58263;48.146;11.440;2023-08-17T04:46:30;95803.94;;;18.78;79.58
70684;BME280;58263;48.146;11.440;2023-08-17T04:48:56;95797.28;;;18.60;80.31
70684;BME280;58263;48.146;11.440;2023-08-17T04:51:21;95805.72;;;18.58;80.67
70684;BME280;58263;48.146;11.440;2023-08-17T04:53:46;95801.28;;;18.68;80.51
70684;BME280;58263;48.146;11.440;2023-08-17T04:56:12;95810.75;;;18.75;79.98
70684;BME280;58263;48.146;11.440;2023-08-17T04:58:37;95802.63;;;18.70;80.95
70684;BME280;58263;48.146;11.440;2023-08-17T05:01:02;95806.88;;;18.87;79.89
70684;BME280;58263;48.146;11.440;2023-08-17T05:03:28;95802.00;;;18.84;80.42
70684;BME280;58263;48.146;11.440;2023-08-17T05:05:53;95801.22;;;18.83;80.52
70684;BME280;58263;48.146;11.440;2023-08-17T05:08:19;95792.28;;;18.78;80.69
70684;BME280;58263;48.146;11.440;2023-08-17T05:10:46;95795.47;;;18.95;80.08
70684;BME280;58263;48.146;11.440;2023-08-17T05:13:11;95790.22;;;19.04;79.94
70684;BME280;58263;48.146;11.440;2023-08-17T05:15:37;95799.91;;;19.15;79.65
70684;BME280;58263;48.146;11.440;2023-08-17T05:18:02;95800.13;;;19.24;79.35
70684;BME280;58263;48.146;11.440;2023-08-17T05:20:27;95801.50;;;19.21;79.52
70684;BME280;58263;48.146;11.440;2023-08-17T05:22:53;95798.75;;;19.27;79.32
70684;BME280;58263;48.146;11.440;2023-08-17T05:25:18;95805.72;;;19.38;78.72
70684;BME280;58263;48.146;11.440;2023-08-17T05:27:43;95805.63;;;19.48;78.76
70684;BME280;58263;48.146;11.440;2023-08-17T05:30:09;95800.69;;;19.55;78.06
70684;BME280;58263;48.146;11.440;2023-08-17T05:32:34;95797.56;;;19.67;78.27
70684;BME280;58263;48.146;11.440;2023-08-17T05:34:59;95804.88;;;19.72;77.55
70684;BME280;58263;48.146;11.440;2023-08-17T05:37:24;95802.00;;;19.87;77.69
70684;BME280;58263;48.146;11.440;2023-08-17T05:39:50;95801.28;;;20.06;77.13
70684;BME280;58263;48.146;11.440;2023-08-17T05:42:15;95810.94;;;20.17;77.00
70684;BME280;58263;48.146;11.440;2023-08-17T05:44:41;95817.31;;;20.32;76.91
70684;BME280;58263;48.146;11.440;2023-08-17T05:47:06;95824.78;;;20.45;76.92
70684;BME280;58263;48.146;11.440;2023-08-17T05:49:31;95828.78;;;20.53;76.38
70684;BME280;58263;48.146;11.440;2023-08-17T05:51:57;95816.91;;;20.63;75.90
70684;BME280;58263;48.146;11.440;2023-08-17T05:54:22;95814.59;;;20.75;75.23
70684;BME280;58263;48.146;11.440;2023-08-17T05:56:47;95812.19;;;20.92;75.44
70684;BME280;58263;48.146;11.440;2023-08-17T05:59:13;95810.19;;;20.98;75.76
70684;BME280;58263;48.146;11.440;2023-08-17T06:01:39;95815.63;;;21.17;74.95
70684;BME280;58263;48.146;11.440;2023-08-17T06:04:05;95810.97;;;21.37;74.47
70684;BME280;58263;48.146;11.440;2023-08-17T06:06:30;95805.19;;;21.57;73.78
70684;BME280;58263;48.146;11.440;2023-08-17T06:08:55;95806.94;;;21.67;73.67
70684;BME280;58263;48.146;11.440;2023-08-17T06:11:22;95809.97;;;21.66;73.24
70684;BME280;58263;48.146;11.440;2023-08-17T06:13:48;95816.84;;;21.77;72.27
70684;BME280;58263;48.146;11.440;2023-08-17T06:16:13;95814.03;;;21.96;72.08
70684;BME280;58263;48.146;11.440;2023-08-17T06:18:38;95814.88;;;21.97;71.16
70684;BME280;58263;48.146;11.440;2023-08-17T06:21:04;95818.31;;;22.16;71.13
70684;BME280;58263;48.146;11.440;2023-08-17T06:23:29;95810.84;;;22.36;69.97
70684;BME280;58263;48.146;11.440;2023-08-17T06:25:58;95816.19;;;22.55;70.02
70684;BME280;58263;48.146;11.440;2023-08-17T06:28:26;95805.97;;;22.74;69.01
70684;BME280;58263;48.146;11.440;2023-08-17T06:30:53;95807.13;;;22.96;68.49
70684;BME280;58263;48.146;11.440;2023-08-17T06:33:18;95805.06;;;23.16;68.00
70684;BME280;58263;48.146;11.440;2023-08-17T06:35:44;95803.44;;;23.15;66.76
70684;BME280;58263;48.146;11.440;2023-08-17T06:38:09;95802.19;;;23.43;66.92
70684;BME280;58263;48.146;11.440;2023-08-17T06:40:34;95800.63;;;23.51;65.57
70684;BME280;58263;48.146;11.440;2023-08-17T06:43:00;95802.28;;;23.61;65.38
70684;BME280;58263;48.146;11.440;2023-08-17T06:45:25;95803.25;;;23.56;64.68
70684;BME280;58263;48.146;11.440;2023-08-17T06:47:50;95805.72;;;23.89;64.84
70684;BME280;58263;48.146;11.440;2023-08-17T06:50:15;95801.56;;;24.01;64.44
70684;BME280;58263;48.146;11.440;2023-08-17T06:52:41;95799.69;;;24.10;63.64
70684;BME280;58263;48.146;11.440;2023-08-17T06:55:06;95798.75;;;24.23;62.25
70684;BME280;58263;48.146;11.440;2023-08-17T06:57:32;95809.00;;;24.49;62.05
70684;BME280;58263;48.146;11.440;2023-08-17T06:59:57;95803.16;;;24.33;60.56
70684;BME280;58263;48.146;11.440;2023-08-17T07:02:22;95808.44;;;24.70;61.11
70684;BME280;58263;48.146;11.440;2023-08-17T07:04:47;95808.28;;;24.75;61.12
70684;BME280;58263;48.146;11.440;2023-08-17T07:07:13;95805.09;;;25.08;60.11
70684;BME280;58263;48.146;11.440;2023-08-17T07:09:39;95808.94;;;25.07;59.61
70684;BME280;58263;48.146;11.440;2023-08-17T07:12:05;95807.34;;;25.32;59.25
70684;BME280;58263;48.146;11.440;2023-08-17T07:14:30;95810.91;;;25.50;58.67
70684;BME280;58263;48.146;11.440;2023-08-17T07:16:55;95816.72;;;25.57;57.89
70684;BME280;58263;48.146;11.440;2023-08-17T07:19:21;95814.06;;;25.87;57.41
70684;BME280;58263;48.146;11.440;2023-08-17T07:21:47;95808.22;;;25.97;57.19
70684;BME280;58263;48.146;11.440;2023-08-17T07:24:13;95808.16;;;26.15;56.49
70684;BME280;58263;48.146;11.440;2023-08-17T07:26:39;95806.78;;;26.39;55.63
70684;BME280;58263;48.146;11.440;2023-08-17T07:29:04;95807.16;;;26.58;55.16
70684;BME280;58263;48.146;11.440;2023-08-17T07:31:30;95812.13;;;26.65;55.61
70684;BME280;58263;48.146;11.440;2023-08-17T07:33:55;95817.03;;;26.59;54.20
70684;BME280;58263;48.146;11.440;2023-08-17T07:36:21;95814.44;;;26.63;53.68
70684;BME280;58263;48.146;11.440;2023-08-17T07:38:46;95824.88;;;26.99;54.19
70684;BME280;58263;48.146;11.440;2023-08-17T07:41:11;95820.53;;;27.20;53.31
70684;BME280;58263;48.146;11.440;2023-08-17T07:43:36;95823.50;;;27.36;52.71
70684;BME280;58263;48.146;11.440;2023-08-17T07:46:02;95819.94;;;27.56;52.01
70684;BME280;58263;48.146;11.440;2023-08-17T07:48:27;95820.06;;;27.60;51.54
70684;BME280;58263;48.146;11.440;2023-08-17T07:50:53;95814.50;;;27.81;51.39
70684;BME280;58263;48.146;11.440;2023-08-17T07:53:19;95823.34;;;27.87;51.12
70684;BME280;58263;48.146;11.440;2023-08-17T07:55:45;95817.13;;;28.11;50.59
70684;BME280;58263;48.146;11.440;2023-08-17T07:58:10;95814.94;;;28.16;49.98
70684;BME280;58263;48.146;11.440;2023-08-17T08:00:35;95809.56;;;28.45;49.34
70684;BME280;58263;48.146;11.440;2023-08-17T08:03:01;95806.34;;;28.55;49.55
70684;BME280;58263;48.146;11.440;2023-08-17T08:05:26;95800.94;;;28.83;48.77
70684;BME280;58263;48.146;11.440;2023-08-17T08:07:52;95803.09;;;28.90;48.42
70684;BME280;58263;48.146;11.440;2023-08-17T08:10:18;95804.91;;;29.11;47.68
70684;BME280;58263;48.146;11.440;2023-08-17T08:12:43;95809.28;;;29.12;47.19
70684;BME280;58263;48.146;11.440;2023-08-17T08:15:08;95819.28;;;29.29;47.79
70684;BME280;58263;48.146;11.440;2023-08-17T08:17:34;95803.88;;;29.56;46.05
70684;BME280;58263;48.146;11.440;2023-08-17T08:20:00;95799.91;;;29.70;46.36
70684;BME280;58263;48.146;11.440;2023-08-17T08:22:25;95803.34;;;29.95;47.12
70684;BME280;58263;48.146;11.440;2023-08-17T08:24:51;95804.69;;;30.17;46.70
70684;BME280;58263;48.146;11.440;2023-08-17T08:27:16;95801.56;;;30.34;46.88
70684;BME280;58263;48.146;11.440;2023-08-17T08:29:41;95798.09;;;30.38;45.43
70684;BME280;58263;48.146;11.440;2023-08-17T08:32:06;95798.38;;;30.48;45.88
70684;BME280;58263;48.146;11.440;2023-08-17T08:34:32;95795.78;;;30.40;43.98
70684;BME280;58263;48.146;11.440;2023-08-17T08:36:57;95803.56;;;30.50;44.97
70684;BME280;58263;48.146;11.440;2023-08-17T08:39:25;95800.72;;;30.62;43.42
70684;BME280;58263;48.146;11.440;2023-08-17T08:41:51;95801.88;;;30.45;42.67
70684;BME280;58263;48.146;11.440;2023-08-17T08:44:16;95801.13;;;30.80;42.82
70684;BME280;58263;48.146;11.440;2023-08-17T08:46:43;95800.78;;;31.01;42.61
70684;BME280;58263;48.146;11.440;2023-08-17T08:49:10;95798.00;;;31.17;42.38
70684;BME280;58263;48.146;11.440;2023-08-17T08:51:39;95797.91;;;31.53;41.52
70684;BME280;58263;48.146;11.440;2023-08-17T08:54:05;95796.88;;;31.81;41.86
70684;BME280;58263;48.146;11.440;2023-08-17T08:56:37;95800.50;;;32.05;40.30
70684;BME280;58263;48.146;11.440;2023-08-17T08:59:04;95800.06;;;32.22;40.67
70684;BME280;58263;48.146;11.440;2023-08-17T09:01:33;95797.69;;;32.24;38.90
70684;BME280;58263;48.146;11.440;2023-08-17T09:03:59;95794.41;;;32.42;39.93
70684;BME280;58263;48.146;11.440;2023-08-17T09:06:29;95795.34;;;32.73;38.50
70684;BME280;58263;48.146;11.440;2023-08-17T09:08:54;95795.69;;;32.98;38.88
70684;BME280;58263;48.146;11.440;2023-08-17T09:11:21;95790.19;;;32.75;38.46
70684;BME280;58263;48.146;11.440;2023-08-17T09:13:47;95783.78;;;32.97;37.39
70684;BME280;58263;48.146;11.440;2023-08-17T09:16:12;95792.00;;;33.47;36.76
70684;BME280;58263;48.146;11.440;2023-08-17T09:18:37;95783.84;;;33.99;37.18
70684;BME280;58263;48.146;11.440;2023-08-17T09:21:03;95785.44;;;34.42;37.15
70684;BME280;58263;48.146;11.440;2023-08-17T09:23:28;95782.34;;;34.58;36.37
70684;BME280;58263;48.146;11.440;2023-08-17T09:25:53;95788.06;;;33.86;36.13
70684;BME280;58263;48.146;11.440;2023-08-17T09:28:24;95779.56;;;34.09;36.44
70684;BME280;58263;48.146;11.440;2023-08-17T09:30:51;95784.47;;;33.85;36.51
70684;BME280;58263;48.146;11.440;2023-08-17T09:33:17;95783.00;;;33.61;35.91
70684;BME280;58263;48.146;11.440;2023-08-17T09:35:43;95778.72;;;34.05;36.96
70684;BME280;58263;48.146;11.440;2023-08-17T09:38:08;95781.41;;;34.35;35.72
70684;BME280;58263;48.146;11.440;2023-08-17T09:40:34;95771.69;;;34.22;35.74
70684;BME280;58263;48.146;11.440;2023-08-17T09:42:59;95773.56;;;34.48;35.58
70684;BME280;58263;48.146;11.440;2023-08-17T09:45:26;95771.09;;;34.40;34.53
70684;BME280;58263;48.146;11.440;2023-08-17T09:47:52;95774.38;;;34.56;35.46
70684;BME280;58263;48.146;11.440;2023-08-17T09:50:22;95774.22;;;34.34;33.75
70684;BME280;58263;48.146;11.440;2023-08-17T09:52:47;95761.44;;;34.82;34.18
70684;BME280;58263;48.146;11.440;2023-08-17T09:55:13;95760.88;;;35.21;34.52
70684;BME280;58263;48.146;11.440;2023-08-17T09:57:40;95756.97;;;35.33;34.32
70684;BME280;58263;48.146;11.440;2023-08-17T10:00:05;95756.59;;;35.42;33.31
70684;BME280;58263;48.146;11.440;2023-08-17T10:02:32;95762.88;;;35.24;33.10
70684;BME280;58263;48.146;11.440;2023-08-17T10:04:59;95761.44;;;35.52;34.57
70684;BME280;58263;48.146;11.440;2023-08-17T10:07:29;95760.56;;;35.33;33.83
70684;BME280;58263;48.146;11.440;2023-08-17T10:10:04;95765.00;;;34.79;34.02
70684;BME280;58263;48.146;11.440;2023-08-17T10:12:34;95759.59;;;35.00;34.76
70684;BME280;58263;48.146;11.440;2023-08-17T10:15:08;95756.53;;;34.64;35.57
70684;BME280;58263;48.146;11.440;2023-08-17T10:17:41;95753.94;;;34.93;35.00
70684;BME280;58263;48.146;11.440;2023-08-17T10:20:09;95746.84;;;35.07;33.54
70684;BME280;58263;48.146;11.440;2023-08-17T10:25:16;95757.78;;;34.70;34.25
70684;BME280;58263;48.146;11.440;2023-08-17T10:27:42;95758.91;;;35.29;34.34
70684;BME280;58263;48.146;11.440;2023-08-17T10:30:09;95752.19;;;35.33;33.37
70684;BME280;58263;48.146;11.440;2023-08-17T10:32:35;95750.28;;;35.52;34.01
70684;BME280;58263;48.146;11.440;2023-08-17T10:35:01;95756.09;;;35.21;33.24
70684;BME280;58263;48.146;11.440;2023-08-17T10:37:27;95752.41;;;34.99;32.52
70684;BME280;58263;48.146;11.440;2023-08-17T10:39:53;95753.22;;;35.03;33.24
70684;BME280;58263;48.146;11.440;2023-08-17T10:42:35;95746.84;;;35.07;32.23
70684;BME280;58263;48.146;11.440;2023-08-17T10:45:24;95760.41;;;35.04;33.66
70684;BME280;58263;48.146;11.440;2023-08-17T10:47:47;95746.66;;;34.74;33.54
70684;BME280;58263;48.146;11.440;2023-08-17T10:50:23;95761.34;;;34.71;33.82
70684;BME280;58263;48.146;11.440;2023-08-17T10:52:50;95764.06;;;34.57;35.06
70684;BME280;58263;48.146;11.440;2023-08-17T10:55:15;95753.88;;;34.30;35.04
70684;BME280;58263;48.146;11.440;2023-08-17T10:57:42;95754.25;;;34.25;36.49
70684;BME280;58263;48.146;11.440;2023-08-17T11:00:13;95746.94;;;34.10;36.06
70684;BME280;58263;48.146;11.440;2023-08-17T11:02:39;95751.56;;;33.95;36.48
70684;BME280;58263;48.146;11.440;2023-08-17T11:05:05;95751.47;;;33.84;36.98
70684;BME280;58263;48.146;11.440;2023-08-17T11:07:42;95748.31;;;34.30;35.71
70684;BME280;58263;48.146;11.440;2023-08-17T11:10:27;95750.56;;;34.62;34.54
70684;BME280;58263;48.146;11.440;2023-08-17T11:12:55;95748.03;;;35.02;34.30
70684;BME280;58263;48.146;11.440;2023-08-17T11:15:25;95742.72;;;35.67;33.53
70684;BME280;58263;48.146;11.440;2023-08-17T11:17:50;95734.84;;;35.94;33.15
70684;BME280;58263;48.146;11.440;2023-08-17T11:20:16;95740.75;;;35.82;33.27
70684;BME280;58263;48.146;11.440;2023-08-17T11:22:41;95735.63;;;36.13;32.59
70684;BME280;58263;48.146;11.440;2023-08-17T11:25:07;95725.66;;;36.69;32.74
70684;BME280;58263;48.146;11.440;2023-08-17T11:27:33;95730.03;;;36.78;31.80
70684;BME280;58263;48.146;11.440;2023-08-17T11:29:58;95732.00;;;36.88;32.59
70684;BME280;58263;48.146;11.440;2023-08-17T11:32:24;95732.03;;;36.84;32.23
70684;BME280;58263;48.146;11.440;2023-08-17T11:34:49;95726.09;;;36.32;30.89
70684;BME280;58263;48.146;11.440;2023-08-17T11:37:16;95727.25;;;35.98;31.61
70684;BME280;58263;48.146;11.440;2023-08-17T11:39:41;95728.06;;;36.53;32.10
70684;BME280;58263;48.146;11.440;2023-08-17T11:42:06;95725.25;;;36.57;31.58
70684;BME280;58263;48.146;11.440;2023-08-17T11:44:33;95718.84;;;36.78;31.13
70684;BME280;58263;48.146;11.440;2023-08-17T11:46:58;95714.41;;;37.02;31.13
70684;BME280;58263;48.146;11.440;2023-08-17T11:49:23;95712.09;;;36.14;31.88
70684;BME280;58263;48.146;11.440;2023-08-17T11:51:50;95707.28;;;36.61;31.22
70684;BME280;58263;48.146;11.440;2023-08-17T11:54:16;95705.94;;;37.13;30.99
70684;BME280;58263;48.146;11.440;2023-08-17T11:56:41;95711.59;;;37.02;30.56
70684;BME280;58263;48.146;11.440;2023-08-17T11:59:10;95711.09;;;37.29;31.17
70684;BME280;58263;48.146;11.440;2023-08-17T12:01:39;95697.97;;;37.11;29.88
70684;BME280;58263;48.146;11.440;2023-08-17T12:04:05;95695.19;;;37.08;31.12
70684;BME280;58263;48.146;11.440;2023-08-17T12:06:31;95698.25;;;37.42;30.19
70684;BME280;58263;48.146;11.440;2023-08-17T12:08:56;95690.34;;;37.19;29.40
70684;BME280;58263;48.146;11.440;2023-08-17T12:11:24;95697.50;;;37.24;29.24
70684;BME280;58263;48.146;11.440;2023-08-17T12:13:53;95693.56;;;37.14;29.26
70684;BME280;58263;48.146;11.440;2023-08-17T12:16:20;95697.59;;;37.09;28.70
70684;BME280;58263;48.146;11.440;2023-08-17T12:18:49;95690.31;;;37.33;28.88
70684;BME280;58263;48.146;11.440;2023-08-17T12:21:14;95689.84;;;37.46;28.44
70684;BME280;58263;48.146;11.440;2023-08-17T12:23:40;95682.41;;;37.10;28.83
70684;BME280;58263;48.146;11.440;2023-08-17T12:26:06;95679.91;;;37.30;28.39
70684;BME280;58263;48.146;11.440;2023-08-17T12:28:32;95664.03;;;37.09;29.61
70684;BME280;58263;48.146;11.440;2023-08-17T12:30:59;95663.44;;;37.47;29.49
70684;BME280;58263;48.146;11.440;2023-08-17T12:33:24;95667.88;;;37.44;29.26
70684;BME280;58263;48.146;11.440;2023-08-17T12:35:50;95663.00;;;37.55;28.78
70684;BME280;58263;48.146;11.440;2023-08-17T12:38:15;95661.28;;;37.76;29.07
70684;BME280;58263;48.146;11.440;2023-08-17T12:40:40;95660.50;;;37.68;28.65
70684;BME280;58263;48.146;11.440;2023-08-17T12:43:06;95655.66;;;37.72;29.00
70684;BME280;58263;48.146;11.440;2023-08-17T12:45:31;95652.16;;;37.61;29.45
70684;BME280;58263;48.146;11.440;2023-08-17T12:47:56;95649.91;;;37.42;29.49